sensor_id;sensor_type;location;lat;lon;timestamp;P1;durP1;ratioP1;P2;durP2;ratioP2
6483;SDS011;3275;52.376;9.694;2023-12-22T06:13:16;11.90;;;1.23;;
6483;SDS011;3275;52.376;9.694;2023-12-22T06:15:42;9.60;;;1.80;;
6483;SDS011;3275;52.376;9.694;2023-12-22T06:18:09;15.27;;;1.97;;
6483;SDS011;3275;52.376;9.694;2023-12-22T06:20:35;8.47;;;1.57;;
6483;SDS011;3275;52.376;9.694;2023-12-22T06:23:02;5.60;;;1.43;;
6483;SDS011;3275;52.376;9.694;2023-12-22T06:25:29;1.27;;;0.70;;
6483;SDS011;3275;52.376;9.694;2023-12-22T06:27:56;6.47;;;1.00;;
6483;SDS011;3275;52.376;9.694;2023-12-22T06:30:23;5.47;;;1.00;;
6483;SDS011;3275;52.376;9.694;2023-12-22T06:32:50;3.63;;;0.70;;
6483;SDS011;3275;52.376;9.694;2023-12-22T06:35:17;7.23;;;0.70;;
6483;SDS011;3275;52.376;9.694;2023-12-22T06:37:48;1.10;;;0.60;;
6483;SDS011;3275;52.376;9.694;2023-12-22T06:40:15;2.77;;;0.53;;
6483;SDS011;3275;52.376;9.694;2023-12-22T06:42:42;1.70;;;0.70;;
6483;SDS011;3275;52.376;9.694;2023-12-22T06:45:09;4.50;;;0.97;;
6483;SDS011;3275;52.376;9.694;2023-12-22T06:47:37;2.10;;;0.60;;
6483;SDS011;3275;52.376;9.694;2023-12-22T06:50:04;3.33;;;1.03;;
6483;SDS011;3275;52.376;9.694;2023-12-22T06:52:31;0.90;;;0.67;;
6483;SDS011;3275;52.376;9.694;2023-12-22T06:54:57;2.60;;;0.50;;
6483;SDS011;3275;52.376;9.694;2023-12-22T06:57:24;4.93;;;0.50;;
6483;SDS011;3275;52.376;9.694;2023-12-22T06:59:50;3.17;;;0.67;;
6483;SDS011;3275;52.376;9.694;2023-12-22T07:02:17;2.40;;;0.73;;
6483;SDS011;3275;52.376;9.694;2023-12-22T07:07:52;0.90;;;0.70;;
6483;SDS011;3275;52.376;9.694;2023-12-22T07:10:18;4.27;;;1.10;;
6483;SDS011;3275;52.376;9.694;2023-12-22T07:12:45;5.13;;;1.20;;
6483;SDS011;3275;52.376;9.694;2023-12-22T07:15:12;6.90;;;1.50;;
6483;SDS011;3275;52.376;9.694;2023-12-22T07:17:38;5.17;;;1.50;;
6483;SDS011;3275;52.376;9.694;2023-12-22T07:20:05;20.60;;;2.23;;
6483;SDS011;3275;52.376;9.694;2023-12-22T07:22:34;20.77;;;2.83;;
6483;SDS011;3275;52.376;9.694;2023-12-22T07:25:02;9.13;;;1.47;;
6483;SDS011;3275;52.376;9.694;2023-12-22T07:27:29;5.90;;;1.60;;
6483;SDS011;3275;52.376;9.694;2023-12-22T07:29:55;9.53;;;1.43;;
6483;SDS011;3275;52.376;9.694;2023-12-22T07:32:22;20.13;;;2.20;;
6483;SDS011;3275;52.376;9.694;2023-12-22T07:34:48;8.80;;;1.50;;
6483;SDS011;3275;52.376;9.694;2023-12-22T07:37:15;13.20;;;2.60;;
6483;SDS011;3275;52.376;9.694;2023-12-22T07:39:41;6.93;;;1.20;;
6483;SDS011;3275;52.376;9.694;2023-12-22T07:42:11;31.77;;;2.50;;
6483;SDS011;3275;52.376;9.694;2023-12-22T07:44:38;15.30;;;1.50;;
6483;SDS011;3275;52.376;9.694;2023-12-22T07:47:05;18.13;;;2.30;;
6483;SDS011;3275;52.376;9.694;2023-12-22T07:49:32;10.07;;;3.00;;
6483;SDS011;3275;52.376;9.694;2023-12-22T07:51:58;11.50;;;2.40;;
6483;SDS011;3275;52.376;9.694;2023-12-22T07:54:24;7.50;;;1.27;;
6483;SDS011;3275;52.376;9.694;2023-12-22T07:56:51;10.60;;;2.50;;
6483;SDS011;3275;52.376;9.694;2023-12-22T07:59:19;16.07;;;2.43;;
6483;SDS011;3275;52.376;9.694;2023-12-22T13:17:10;9.20;;;1.30;;
6483;SDS011;3275;52.376;9.694;2023-12-22T13:19:37;6.83;;;0.93;;
6483;SDS011;3275;52.376;9.694;2023-12-22T13:22:04;2.07;;;0.70;;
6483;SDS011;3275;52.376;9.694;2023-12-22T13:24:31;3.60;;;0.80;;
6483;SDS011;3275;52.376;9.694;2023-12-22T13:27:00;5.03;;;0.87;;
6483;SDS011;3275;52.376;9.694;2023-12-22T13:29:28;5.13;;;1.03;;
6483;SDS011;3275;52.376;9.694;2023-12-22T13:31:55;4.73;;;0.70;;
6483;SDS011;3275;52.376;9.694;2023-12-22T13:34:24;6.20;;;0.77;;
6483;SDS011;3275;52.376;9.694;2023-12-22T13:36:51;2.87;;;0.90;;
6483;SDS011;3275;52.376;9.694;2023-12-22T13:39:18;3.77;;;0.70;;
6483;SDS011;3275;52.376;9.694;2023-12-22T13:41:45;3.40;;;0.93;;
6483;SDS011;3275;52.376;9.694;2023-12-22T13:44:12;5.23;;;0.87;;
6483;SDS011;3275;52.376;9.694;2023-12-22T13:46:39;20.03;;;1.83;;
6483;SDS011;3275;52.376;9.694;2023-12-22T13:49:07;9.87;;;1.37;;
6483;SDS011;3275;52.376;9.694;2023-12-22T13:51:39;2.73;;;0.57;;
6483;SDS011;3275;52.376;9.694;2023-12-22T13:54:06;4.50;;;0.93;;
6483;SDS011;3275;52.376;9.694;2023-12-22T13:56:33;5.50;;;0.83;;
6483;SDS011;3275;52.376;9.694;2023-12-22T13:59:01;2.23;;;0.73;;
6483;SDS011;3275;52.376;9.694;2023-12-22T14:01:28;3.77;;;0.97;;
6483;SDS011;3275;52.376;9.694;2023-12-22T14:03:55;3.07;;;1.13;;
6483;SDS011;3275;52.376;9.694;2023-12-22T14:06:23;4.73;;;1.20;;
6483;SDS011;3275;52.376;9.694;2023-12-22T14:08:51;7.23;;;1.10;;
6483;SDS011;3275;52.376;9.694;2023-12-22T14:11:18;4.90;;;0.70;;
6483;SDS011;3275;52.376;9.694;2023-12-22T14:13:45;15.17;;;1.20;;
6483;SDS011;3275;52.376;9.694;2023-12-22T14:16:11;4.60;;;0.90;;
6483;SDS011;3275;52.376;9.694;2023-12-22T14:18:38;6.30;;;1.67;;
6483;SDS011;3275;52.376;9.694;2023-12-22T14:21:05;6.40;;;1.20;;
6483;SDS011;3275;52.376;9.694;2023-12-22T14:23:31;4.17;;;1.00;;
6483;SDS011;3275;52.376;9.694;2023-12-22T14:25:59;7.87;;;1.40;;
6483;SDS011;3275;52.376;9.694;2023-12-22T14:28:26;13.80;;;1.53;;
6483;SDS011;3275;52.376;9.694;2023-12-22T14:30:53;7.73;;;1.20;;
6483;SDS011;3275;52.376;9.694;2023-12-22T14:33:20;4.87;;;0.83;;
6483;SDS011;3275;52.376;9.694;2023-12-22T14:35:47;5.80;;;1.07;;
6483;SDS011;3275;52.376;9.694;2023-12-22T14:38:14;6.00;;;1.10;;
6483;SDS011;3275;52.376;9.694;2023-12-22T14:40:40;7.63;;;0.93;;
6483;SDS011;3275;52.376;9.694;2023-12-22T14:43:08;10.30;;;1.80;;
6483;SDS011;3275;52.376;9.694;2023-12-22T14:45:35;7.70;;;1.07;;
6483;SDS011;3275;52.376;9.694;2023-12-22T14:48:02;2.33;;;1.13;;
6483;SDS011;3275;52.376;9.694;2023-12-22T14:50:29;3.37;;;0.97;;
6483;SDS011;3275;52.376;9.694;2023-12-22T14:52:56;9.90;;;1.50;;
6483;SDS011;3275;52.376;9.694;2023-12-22T14:55:23;2.40;;;1.00;;
6483;SDS011;3275;52.376;9.694;2023-12-22T14:57:49;4.20;;;0.93;;
6483;SDS011;3275;52.376;9.694;2023-12-22T15:00:18;2.63;;;0.90;;
6483;SDS011;3275;52.376;9.694;2023-12-22T15:02:45;8.50;;;1.53;;
6483;SDS011;3275;52.376;9.694;2023-12-22T15:05:11;6.53;;;1.23;;
6483;SDS011;3275;52.376;9.694;2023-12-22T15:07:38;7.80;;;1.77;;
6483;SDS011;3275;52.376;9.694;2023-12-22T15:10:05;7.60;;;1.30;;
6483;SDS011;3275;52.376;9.694;2023-12-22T15:12:32;3.40;;;1.00;;
6483;SDS011;3275;52.376;9.694;2023-12-22T15:15:01;2.63;;;1.10;;
6483;SDS011;3275;52.376;9.694;2023-12-22T15:17:30;2.70;;;1.00;;
6483;SDS011;3275;52.376;9.694;2023-12-22T15:19:56;9.07;;;1.20;;
6483;SDS011;3275;52.376;9.694;2023-12-22T15:22:23;3.67;;;0.80;;
6483;SDS011;3275;52.376;9.694;2023-12-22T15:24:50;1.97;;;0.80;;
6483;SDS011;3275;52.376;9.694;2023-12-22T15:27:16;9.87;;;1.27;;
6483;SDS011;3275;52.376;9.694;2023-12-22T15:29:44;5.70;;;3.40;;
6483;SDS011;3275;52.376;9.694;2023-12-22T15:32:11;4.63;;;1.50;;
6483;SDS011;3275;52.376;9.694;2023-12-22T15:34:41;11.40;;;1.80;;
6483;SDS011;3275;52.376;9.694;2023-12-22T15:37:08;3.33;;;0.70;;
6483;SDS011;3275;52.376;9.694;2023-12-22T15:39:35;6.97;;;1.00;;
6483;SDS011;3275;52.376;9.694;2023-12-22T15:42:02;2.27;;;0.90;;
6483;SDS011;3275;52.376;9.694;2023-12-22T15:44:29;3.30;;;1.00;;
6483;SDS011;3275;52.376;9.694;2023-12-22T15:46:55;2.10;;;0.73;;
6483;SDS011;3275;52.376;9.694;2023-12-22T15:49:22;2.80;;;0.60;;
6483;SDS011;3275;52.376;9.694;2023-12-22T15:51:50;2.07;;;0.57;;
6483;SDS011;3275;52.376;9.694;2023-12-22T15:54:20;6.47;;;0.80;;
6483;SDS011;3275;52.376;9.694;2023-12-22T15:56:47;6.13;;;1.67;;
6483;SDS011;3275;52.376;9.694;2023-12-22T15:59:14;3.40;;;0.90;;
6483;SDS011;3275;52.376;9.694;2023-12-22T16:01:43;1.83;;;1.13;;
6483;SDS011;3275;52.376;9.694;2023-12-22T16:04:10;2.80;;;1.10;;
6483;SDS011;3275;52.376;9.694;2023-12-22T16:06:37;13.73;;;1.40;;
6483;SDS011;3275;52.376;9.694;2023-12-22T16:09:05;1.43;;;0.63;;
6483;SDS011;3275;52.376;9.694;2023-12-22T16:11:31;2.50;;;0.80;;
6483;SDS011;3275;52.376;9.694;2023-12-22T16:13:58;2.63;;;0.70;;
6483;SDS011;3275;52.376;9.694;2023-12-22T16:16:25;8.93;;;0.70;;
6483;SDS011;3275;52.376;9.694;2023-12-22T16:18:51;1.33;;;0.77;;
6483;SDS011;3275;52.376;9.694;2023-12-22T16:21:18;6.03;;;0.60;;
6483;SDS011;3275;52.376;9.694;2023-12-22T16:23:45;2.00;;;0.93;;
6483;SDS011;3275;52.376;9.694;2023-12-22T16:26:13;3.97;;;1.10;;
6483;SDS011;3275;52.376;9.694;2023-12-22T16:28:44;4.10;;;0.80;;
6483;SDS011;3275;52.376;9.694;2023-12-22T16:31:11;1.13;;;0.77;;
6483;SDS011;3275;52.376;9.694;2023-12-22T16:33:38;1.53;;;0.80;;
6483;SDS011;3275;52.376;9.694;2023-12-22T16:36:07;10.23;;;1.20;;
6483;SDS011;3275;52.376;9.694;2023-12-22T16:38:34;2.43;;;0.70;;
6483;SDS011;3275;52.376;9.694;2023-12-22T16:41:01;3.60;;;1.13;;
6483;SDS011;3275;52.376;9.694;2023-12-22T16:43:31;5.57;;;1.73;;
6483;SDS011;3275;52.376;9.694;2023-12-22T16:45:58;5.63;;;1.60;;
6483;SDS011;3275;52.376;9.694;2023-12-22T16:48:25;5.47;;;2.03;;
6483;SDS011;3275;52.376;9.694;2023-12-22T16:50:51;4.97;;;1.50;;
6483;SDS011;3275;52.376;9.694;2023-12-22T16:53:20;2.30;;;1.20;;
6483;SDS011;3275;52.376;9.694;2023-12-22T16:55:46;4.07;;;1.17;;
6483;SDS011;3275;52.376;9.694;2023-12-22T16:58:13;3.60;;;1.33;;
6483;SDS011;3275;52.376;9.694;2023-12-22T17:00:41;2.53;;;0.93;;
6483;SDS011;3275;52.376;9.694;2023-12-22T17:03:07;1.97;;;0.90;;
6483;SDS011;3275;52.376;9.694;2023-12-22T17:05:34;3.33;;;1.20;;
6483;SDS011;3275;52.376;9.694;2023-12-22T17:08:01;1.50;;;1.17;;
6483;SDS011;3275;52.376;9.694;2023-12-22T17:10:28;3.13;;;1.00;;
6483;SDS011;3275;52.376;9.694;2023-12-22T17:12:54;2.23;;;0.93;;
6483;SDS011;3275;52.376;9.694;2023-12-22T17:15:21;4.17;;;1.40;;
6483;SDS011;3275;52.376;9.694;2023-12-22T17:17:49;7.43;;;1.40;;
6483;SDS011;3275;52.376;9.694;2023-12-22T17:20:16;2.10;;;0.80;;
6483;SDS011;3275;52.376;9.694;2023-12-22T17:22:42;5.63;;;1.37;;
6483;SDS011;3275;52.376;9.694;2023-12-22T17:25:09;4.43;;;2.03;;
6483;SDS011;3275;52.376;9.694;2023-12-22T17:27:36;4.93;;;1.47;;
6483;SDS011;3275;52.376;9.694;2023-12-22T17:30:03;1.30;;;1.00;;
6483;SDS011;3275;52.376;9.694;2023-12-22T17:32:30;4.00;;;1.57;;
6483;SDS011;3275;52.376;9.694;2023-12-22T17:34:58;2.67;;;1.50;;
6483;SDS011;3275;52.376;9.694;2023-12-22T17:37:24;2.87;;;1.37;;
6483;SDS011;3275;52.376;9.694;2023-12-22T17:39:51;4.80;;;2.00;;
6483;SDS011;3275;52.376;9.694;2023-12-22T17:42:18;9.40;;;2.50;;
6483;SDS011;3275;52.376;9.694;2023-12-22T17:44:44;3.17;;;2.20;;
6483;SDS011;3275;52.376;9.694;2023-12-22T17:47:11;4.53;;;2.00;;
6483;SDS011;3275;52.376;9.694;2023-12-22T17:49:37;4.07;;;1.93;;
6483;SDS011;3275;52.376;9.694;2023-12-22T17:52:05;3.57;;;1.63;;
6483;SDS011;3275;52.376;9.694;2023-12-22T17:54:32;14.67;;;2.13;;
6483;SDS011;3275;52.376;9.694;2023-12-22T17:56:59;8.30;;;1.93;;
6483;SDS011;3275;52.376;9.694;2023-12-22T17:59:28;1.60;;;1.50;;
6483;SDS011;3275;52.376;9.694;2023-12-22T18:01:54;2.33;;;1.40;;
6483;SDS011;3275;52.376;9.694;2023-12-22T18:04:22;2.70;;;1.53;;
6483;SDS011;3275;52.376;9.694;2023-12-22T18:06:49;6.33;;;1.10;;
6483;SDS011;3275;52.376;9.694;2023-12-22T18:09:17;19.83;;;1.23;;
6483;SDS011;3275;52.376;9.694;2023-12-22T18:11:44;2.87;;;1.00;;
6483;SDS011;3275;52.376;9.694;2023-12-22T18:14:11;3.47;;;1.10;;
6483;SDS011;3275;52.376;9.694;2023-12-22T18:16:38;2.87;;;0.63;;
6483;SDS011;3275;52.376;9.694;2023-12-22T18:19:05;5.33;;;1.00;;
6483;SDS011;3275;52.376;9.694;2023-12-22T18:21:31;1.03;;;0.70;;
6483;SDS011;3275;52.376;9.694;2023-12-22T18:23:58;2.87;;;0.70;;
6483;SDS011;3275;52.376;9.694;2023-12-22T18:26:26;4.00;;;0.70;;
6483;SDS011;3275;52.376;9.694;2023-12-22T18:28:53;0.80;;;0.50;;
6483;SDS011;3275;52.376;9.694;2023-12-22T18:31:19;3.63;;;0.53;;
6483;SDS011;3275;52.376;9.694;2023-12-22T18:33:46;1.20;;;0.70;;
6483;SDS011;3275;52.376;9.694;2023-12-22T18:36:13;0.70;;;0.50;;
6483;SDS011;3275;52.376;9.694;2023-12-22T18:38:39;4.67;;;0.70;;
6483;SDS011;3275;52.376;9.694;2023-12-22T18:41:07;2.20;;;0.87;;
6483;SDS011;3275;52.376;9.694;2023-12-22T18:43:35;1.03;;;0.70;;
6483;SDS011;3275;52.376;9.694;2023-12-22T18:46:03;1.63;;;0.60;;
6483;SDS011;3275;52.376;9.694;2023-12-22T18:48:29;0.80;;;0.50;;
6483;SDS011;3275;52.376;9.694;2023-12-22T18:50:56;2.20;;;0.60;;
6483;SDS011;3275;52.376;9.694;2023-12-22T18:53:23;2.47;;;0.60;;
6483;SDS011;3275;52.376;9.694;2023-12-22T18:55:49;0.80;;;0.53;;
6483;SDS011;3275;52.376;9.694;2023-12-22T18:58:16;6.57;;;0.77;;
6483;SDS011;3275;52.376;9.694;2023-12-22T19:00:46;2.30;;;0.70;;
6483;SDS011;3275;52.376;9.694;2023-12-22T19:03:13;3.90;;;0.90;;
6483;SDS011;3275;52.376;9.694;2023-12-22T19:05:39;1.80;;;0.70;;
6483;SDS011;3275;52.376;9.694;2023-12-22T19:08:06;1.97;;;0.60;;
6483;SDS011;3275;52.376;9.694;2023-12-22T19:10:33;0.63;;;0.50;;
6483;SDS011;3275;52.376;9.694;2023-12-22T19:12:59;1.27;;;0.50;;
6483;SDS011;3275;52.376;9.694;2023-12-22T19:15:26;1.30;;;0.67;;
6483;SDS011;3275;52.376;9.694;2023-12-22T19:17:54;2.60;;;0.70;;
6483;SDS011;3275;52.376;9.694;2023-12-22T19:20:22;1.70;;;0.67;;
6483;SDS011;3275;52.376;9.694;2023-12-22T19:22:48;1.57;;;0.60;;
6483;SDS011;3275;52.376;9.694;2023-12-22T19:25:15;1.33;;;0.50;;
6483;SDS011;3275;52.376;9.694;2023-12-22T19:27:42;1.83;;;0.50;;
6483;SDS011;3275;52.376;9.694;2023-12-22T19:30:10;4.00;;;0.50;;
6483;SDS011;3275;52.376;9.694;2023-12-22T19:32:37;0.80;;;0.50;;
6483;SDS011;3275;52.376;9.694;2023-12-22T19:35:06;3.93;;;0.90;;
6483;SDS011;3275;52.376;9.694;2023-12-22T19:37:33;7.87;;;2.47;;
6483;SDS011;3275;52.376;9.694;2023-12-22T19:39:59;2.13;;;0.73;;
6483;SDS011;3275;52.376;9.694;2023-12-22T19:42:27;2.97;;;0.40;;
6483;SDS011;3275;52.376;9.694;2023-12-22T19:44:57;4.63;;;0.80;;
6483;SDS011;3275;52.376;9.694;2023-12-22T19:47:29;0.90;;;0.50;;
6483;SDS011;3275;52.376;9.694;2023-12-22T19:49:56;0.60;;;0.50;;
6483;SDS011;3275;52.376;9.694;2023-12-22T19:52:24;0.93;;;0.60;;
6483;SDS011;3275;52.376;9.694;2023-12-22T19:54:56;3.57;;;1.20;;
6483;SDS011;3275;52.376;9.694;2023-12-22T19:57:26;0.80;;;0.50;;
6483;SDS011;3275;52.376;9.694;2023-12-22T19:59:53;2.10;;;0.60;;
6483;SDS011;3275;52.376;9.694;2023-12-22T20:02:19;1.07;;;0.63;;
6483;SDS011;3275;52.376;9.694;2023-12-22T20:04:46;2.40;;;1.20;;
6483;SDS011;3275;52.376;9.694;2023-12-22T20:07:13;1.13;;;0.50;;
6483;SDS011;3275;52.376;9.694;2023-12-22T20:09:41;2.20;;;0.77;;
6483;SDS011;3275;52.376;9.694;2023-12-22T20:12:08;1.20;;;0.80;;
6483;SDS011;3275;52.376;9.694;2023-12-22T20:14:35;4.77;;;0.87;;
6483;SDS011;3275;52.376;9.694;2023-12-22T20:17:02;2.70;;;0.53;;
6483;SDS011;3275;52.376;9.694;2023-12-22T20:19:30;2.50;;;0.80;;
6483;SDS011;3275;52.376;9.694;2023-12-22T20:21:57;3.03;;;0.60;;
6483;SDS011;3275;52.376;9.694;2023-12-22T20:24:24;5.43;;;0.70;;
6483;SDS011;3275;52.376;9.694;2023-12-22T20:26:52;2.50;;;0.60;;
6483;SDS011;3275;52.376;9.694;2023-12-22T20:29:18;3.47;;;0.80;;
6483;SDS011;3275;52.376;9.694;2023-12-22T20:31:45;0.70;;;0.70;;
6483;SDS011;3275;52.376;9.694;2023-12-22T20:34:11;6.20;;;1.03;;
6483;SDS011;3275;52.376;9.694;2023-12-22T20:36:38;4.40;;;0.70;;
6483;SDS011;3275;52.376;9.694;2023-12-22T20:39:06;2.10;;;0.60;;
6483;SDS011;3275;52.376;9.694;2023-12-22T20:41:33;1.23;;;0.60;;
6483;SDS011;3275;52.376;9.694;2023-12-22T20:44:01;1.10;;;0.60;;
6483;SDS011;3275;52.376;9.694;2023-12-22T20:46:28;0.60;;;0.50;;
6483;SDS011;3275;52.376;9.694;2023-12-22T20:48:54;1.43;;;0.63;;
6483;SDS011;3275;52.376;9.694;2023-12-22T20:51:21;7.67;;;0.70;;
6483;SDS011;3275;52.376;9.694;2023-12-22T20:53:48;1.83;;;0.70;;
6483;SDS011;3275;52.376;9.694;2023-12-22T20:56:17;4.63;;;0.80;;
6483;SDS011;3275;52.376;9.694;2023-12-22T20:58:45;2.40;;;0.70;;
6483;SDS011;3275;52.376;9.694;2023-12-22T21:01:13;1.10;;;0.70;;
6483;SDS011;3275;52.376;9.694;2023-12-22T21:03:40;1.43;;;0.50;;
6483;SDS011;3275;52.376;9.694;2023-12-22T21:06:13;4.80;;;0.60;;
6483;SDS011;3275;52.376;9.694;2023-12-22T21:08:39;1.53;;;0.73;;
6483;SDS011;3275;52.376;9.694;2023-12-22T21:11:09;2.97;;;0.90;;
6483;SDS011;3275;52.376;9.694;2023-12-22T21:13:36;1.83;;;0.70;;
6483;SDS011;3275;52.376;9.694;2023-12-22T21:16:06;3.33;;;0.70;;
6483;SDS011;3275;52.376;9.694;2023-12-22T21:18:34;2.60;;;0.67;;
6483;SDS011;3275;52.376;9.694;2023-12-22T21:21:10;1.80;;;0.57;;
6483;SDS011;3275;52.376;9.694;2023-12-22T21:23:37;4.03;;;0.70;;
6483;SDS011;3275;52.376;9.694;2023-12-22T21:28:57;0.60;;;0.50;;
6483;SDS011;3275;52.376;9.694;2023-12-22T21:31:26;7.87;;;0.77;;
6483;SDS011;3275;52.376;9.694;2023-12-22T21:33:57;1.10;;;0.53;;
6483;SDS011;3275;52.376;9.694;2023-12-22T21:36:24;1.67;;;0.87;;
6483;SDS011;3275;52.376;9.694;2023-12-22T21:38:52;1.43;;;0.57;;
6483;SDS011;3275;52.376;9.694;2023-12-22T21:41:19;1.63;;;0.70;;
6483;SDS011;3275;52.376;9.694;2023-12-22T21:43:48;3.13;;;0.60;;
6483;SDS011;3275;52.376;9.694;2023-12-22T21:46:14;2.77;;;0.70;;
6483;SDS011;3275;52.376;9.694;2023-12-22T21:48:41;3.13;;;0.97;;
6483;SDS011;3275;52.376;9.694;2023-12-22T21:51:12;2.40;;;0.60;;
6483;SDS011;3275;52.376;9.694;2023-12-22T21:53:41;1.20;;;0.70;;
6483;SDS011;3275;52.376;9.694;2023-12-22T21:56:08;1.00;;;0.60;;
6483;SDS011;3275;52.376;9.694;2023-12-22T21:58:48;0.70;;;0.50;;
6483;SDS011;3275;52.376;9.694;2023-12-22T22:01:17;3.70;;;0.77;;
6483;SDS011;3275;52.376;9.694;2023-12-22T22:03:44;1.83;;;0.40;;
6483;SDS011;3275;52.376;9.694;2023-12-22T22:06:15;0.70;;;0.40;;
6483;SDS011;3275;52.376;9.694;2023-12-22T22:08:45;0.73;;;0.50;;
6483;SDS011;3275;52.376;9.694;2023-12-22T22:11:12;0.70;;;0.50;;
6483;SDS011;3275;52.376;9.694;2023-12-22T22:13:40;1.17;;;0.60;;
6483;SDS011;3275;52.376;9.694;2023-12-22T22:16:07;4.20;;;0.77;;
6483;SDS011;3275;52.376;9.694;2023-12-22T22:18:33;2.63;;;0.60;;
6483;SDS011;3275;52.376;9.694;2023-12-22T22:21:03;1.40;;;0.53;;
6483;SDS011;3275;52.376;9.694;2023-12-22T22:23:34;7.97;;;0.60;;
6483;SDS011;3275;52.376;9.694;2023-12-22T22:26:00;0.83;;;0.40;;
6483;SDS011;3275;52.376;9.694;2023-12-22T22:28:29;2.63;;;1.33;;
6483;SDS011;3275;52.376;9.694;2023-12-22T22:30:56;2.50;;;0.73;;
6483;SDS011;3275;52.376;9.694;2023-12-22T22:33:25;1.83;;;0.60;;
6483;SDS011;3275;52.376;9.694;2023-12-22T22:35:51;1.63;;;0.60;;
6483;SDS011;3275;52.376;9.694;2023-12-22T22:38:18;2.37;;;0.50;;
6483;SDS011;3275;52.376;9.694;2023-12-22T22:40:49;1.40;;;0.70;;
6483;SDS011;3275;52.376;9.694;2023-12-22T22:43:19;4.43;;;1.13;;
6483;SDS011;3275;52.376;9.694;2023-12-22T22:45:49;3.27;;;0.67;;
6483;SDS011;3275;52.376;9.694;2023-12-22T22:48:16;4.00;;;0.73;;
6483;SDS011;3275;52.376;9.694;2023-12-22T22:50:47;3.70;;;1.70;;
6483;SDS011;3275;52.376;9.694;2023-12-22T22:53:16;5.03;;;0.80;;
6483;SDS011;3275;52.376;9.694;2023-12-22T22:55:43;6.53;;;0.70;;
6483;SDS011;3275;52.376;9.694;2023-12-22T22:58:11;2.83;;;0.80;;
6483;SDS011;3275;52.376;9.694;2023-12-22T23:00:38;1.27;;;0.60;;
6483;SDS011;3275;52.376;9.694;2023-12-22T23:03:06;2.83;;;0.70;;
6483;SDS011;3275;52.376;9.694;2023-12-22T23:05:33;3.70;;;0.80;;
6483;SDS011;3275;52.376;9.694;2023-12-22T23:08:00;1.57;;;1.03;;
6483;SDS011;3275;52.376;9.694;2023-12-22T23:10:27;3.30;;;0.97;;
6483;SDS011;3275;52.376;9.694;2023-12-22T23:12:53;3.03;;;0.80;;
6483;SDS011;3275;52.376;9.694;2023-12-22T23:15:21;6.80;;;0.50;;
6483;SDS011;3275;52.376;9.694;2023-12-22T23:17:48;1.00;;;0.57;;
6483;SDS011;3275;52.376;9.694;2023-12-22T23:20:15;1.00;;;0.60;;
6483;SDS011;3275;52.376;9.694;2023-12-22T23:22:42;1.23;;;0.60;;
6483;SDS011;3275;52.376;9.694;2023-12-22T23:25:09;3.27;;;0.50;;
6483;SDS011;3275;52.376;9.694;2023-12-22T23:27:36;2.83;;;0.50;;
6483;SDS011;3275;52.376;9.694;2023-12-22T23:30:02;2.53;;;0.57;;
6483;SDS011;3275;52.376;9.694;2023-12-22T23:32:32;1.30;;;1.00;;
6483;SDS011;3275;52.376;9.694;2023-12-22T23:34:59;2.20;;;0.87;;
6483;SDS011;3275;52.376;9.694;2023-12-22T23:37:26;2.10;;;0.70;;
6483;SDS011;3275;52.376;9.694;2023-12-22T23:39:52;1.63;;;0.90;;
6483;SDS011;3275;52.376;9.694;2023-12-22T23:42:19;4.43;;;0.87;;
6483;SDS011;3275;52.376;9.694;2023-12-22T23:44:46;6.03;;;1.10;;
6483;SDS011;3275;52.376;9.694;2023-12-22T23:47:12;1.47;;;0.70;;
6483;SDS011;3275;52.376;9.694;2023-12-22T23:49:40;7.10;;;0.70;;
6483;SDS011;3275;52.376;9.694;2023-12-22T23:52:07;2.30;;;0.87;;
6483;SDS011;3275;52.376;9.694;2023-12-22T23:54:34;4.33;;;0.77;;
6483;SDS011;3275;52.376;9.694;2023-12-22T23:57:00;3.63;;;0.80;;
6483;SDS011;3275;52.376;9.694;2023-12-22T23:59:27;2.93;;;0.67;;
